Flight Track Log - Related Links

Times and Time Zones

All times are in EDT time to prevent confusion due to time zone crossing. See the UAL1177 flight status page for this flight to view local times or setup timezone preferences in your user account.

Time Position Orientation Groundspeed Altitude Reporting Facility
EDT Latitude Longitude Course Direction KTS MPH feet Rate Location/Type
Tue 04:50:00 PM 40.5665 -80.6434 287° West  Level FlightAware Approximate
Tue 04:51:00 PM 40.6001 -80.7837 288° West  Level FlightAware Approximate
Tue 04:52:00 PM 40.6316 -80.9248 285° West  Level FlightAware Approximate
Tue 04:53:00 PM 40.6540 -81.0680 286° West  Level FlightAware Approximate
Tue 04:53:27 PM 40.6940 -80.5150 286° West 315 362 14,100  Level FlightAware ADS-B
Tue 04:54:00 PM 40.6855 -81.2093 286° West  Level FlightAware Approximate
Tue 04:54:07 PM 40.6980 -80.5910 274° West 347 399 14,800  Level FlightAware ADS-B
Tue 04:54:52 PM 40.7030 -80.6900 274° West 347 399 16,800 2,329 Climbing FlightAware ADS-B
Tue 04:55:32 PM 40.7080 -80.7750 274° West 358 412 18,100 1,875 Climbing FlightAware ADS-B
Tue 04:56:12 PM 40.7120 -80.8650 273° West 371 427 19,300 1,835 Climbing FlightAware ADS-B
Tue 04:56:57 PM 40.7180 -80.9680 274° West 377 434 20,700 1,835 Climbing FlightAware ADS-B
Tue 04:57:37 PM 40.7220 -81.0610 273° West 384 442 21,900 1,725 Climbing FlightAware ADS-B
Tue 04:58:17 PM 40.7270 -81.1530 274° West 389 448 23,000 1,765 Climbing FlightAware ADS-B
Tue 04:59:02 PM 40.7330 -81.2620 274° West 389 448 24,400 1,694 Climbing FlightAware ADS-B
Tue 04:59:42 PM 40.7400 -81.3560 276° West 390 449 25,400 1,482 Climbing FlightAware ADS-B
Tue 05:00:27 PM 40.7490 -81.4630 276° West 394 453 26,500 1,341 Climbing FlightAware ADS-B
Tue 05:01:07 PM 40.7560 -81.5550 276° West 398 458 27,300 1,200 Climbing FlightAware ADS-B
Tue 05:01:47 PM 40.7640 -81.6520 276° West 403 464 28,100 1,341 Climbing FlightAware ADS-B
Tue 05:02:32 PM 40.7720 -81.7630 275° West 400 460 29,200 1,412 Climbing FlightAware ADS-B
Tue 05:03:12 PM 40.7790 -81.8600 275° West 398 458 30,100 1,271 Climbing FlightAware ADS-B
Tue 05:03:57 PM 40.7870 -81.9670 276° West 398 458 31,000 1,200 Climbing FlightAware ADS-B
Tue 05:04:37 PM 40.7940 -82.0670 275° West 396 456 31,800 1,200 Climbing FlightAware ADS-B
Tue 05:05:17 PM 40.8010 -82.1640 275° West 395 455 32,600 1,200 Climbing FlightAware ADS-B
Tue 05:05:57 PM 40.8080 -82.2600 276° West 391 450 33,400 1,050 Climbing FlightAware ADS-B
Tue 05:06:37 PM 40.8150 -82.3510 276° West 388 447 34,000 450 Climbing FlightAware ADS-B
Tue 05:07:17 PM 40.8220 -82.4480 275° West 386 444 34,000  Level FlightAware ADS-B
Tue 05:07:57 PM 40.8280 -82.5360 275° West 385 443 34,000  Level FlightAware ADS-B
Tue 05:08:42 PM 40.8350 -82.6390 275° West 388 447 34,000  Level FlightAware ADS-B
Tue 05:09:22 PM 40.8410 -82.7410 274° West 391 450 34,000  Level FlightAware ADS-B
Tue 05:10:02 PM 40.8470 -82.8330 275° West 392 451 34,000  Level FlightAware ADS-B
Tue 05:10:47 PM 40.8530 -82.9340 275° West 393 452 34,000  Level FlightAware ADS-B
Tue 05:11:42 PM 40.8630 -83.0760 275° West 398 458 34,000 316 Level FlightAware ADS-B
Tue 05:12:22 PM 40.8690 -83.1720 275° West 400 460 34,500 776 Climbing FlightAware ADS-B
Tue 05:13:07 PM 40.8760 -83.2810 275° West 399 459 35,100 847 Climbing FlightAware ADS-B
Tue 05:13:47 PM 40.8820 -83.3760 275° West 396 456 35,700 635 Climbing FlightAware ADS-B
Tue 05:14:32 PM 40.8890 -83.4860 275° West 395 455 36,000 212 Climbing FlightAware ADS-B
Tue 05:15:12 PM 40.8940 -83.5820 274° West 396 456 36,000  Level FlightAware ADS-B
Tue 05:15:57 PM 40.9010 -83.6880 275° West 396 456 36,000  Level FlightAware ADS-B
Tue 05:16:37 PM 40.9060 -83.7860 274° West 396 456 36,000  Level FlightAware ADS-B
Tue 05:17:17 PM 40.9120 -83.8820 275° West 396 456 36,000  Level FlightAware ADS-B
Tue 05:18:02 PM 40.9180 -83.9940 274° West 398 458 36,000  Level FlightAware ADS-B
Tue 05:18:42 PM 40.9240 -84.0900 275° West 400 460 36,000  Level FlightAware ADS-B
Tue 05:19:27 PM 40.9290 -84.1900 274° West 401 461 36,000  Level FlightAware ADS-B
Tue 05:20:07 PM 40.9350 -84.2970 274° West 402 463 36,000  Level FlightAware ADS-B
Tue 05:20:47 PM 40.9400 -84.3930 274° West 403 464 36,000  Level FlightAware ADS-B
Tue 05:21:32 PM 40.9460 -84.5080 274° West 403 464 36,000  Level FlightAware ADS-B
Tue 05:22:12 PM 40.9500 -84.6040 273° West 404 465 36,000  Level FlightAware ADS-B
Tue 05:22:52 PM 40.9550 -84.7030 274° West 402 463 36,000  Level FlightAware ADS-B
Tue 05:23:37 PM 40.9610 -84.8110 274° West 399 459 36,000  Level FlightAware ADS-B
Tue 05:24:17 PM 40.9660 -84.9080 274° West 398 458 36,000  Level FlightAware ADS-B
Tue 05:25:02 PM 40.9700 -85.0140 273° West 398 458 36,000  Level FlightAware ADS-B
Tue 05:25:42 PM 40.9750 -85.1170 274° West 398 458 36,000  Level FlightAware ADS-B
Tue 05:26:22 PM 40.9800 -85.2140 274° West 399 459 36,000  Level FlightAware ADS-B
Tue 05:27:07 PM 40.9840 -85.3210 273° West 401 461 36,000  Level FlightAware ADS-B
Tue 05:27:52 PM 40.9890 -85.4250 274° West 401 461 36,000  Level FlightAware ADS-B
Tue 05:28:32 PM 40.9910 -85.5260 272° West 400 460 36,000  Level FlightAware ADS-B
Tue 05:29:17 PM 40.9940 -85.6370 272° West 400 460 36,000  Level FlightAware ADS-B
Tue 05:29:57 PM 40.9960 -85.7330 272° West 403 464 36,000  Level FlightAware ADS-B
Tue 05:30:37 PM 40.9990 -85.8310 272° West 406 467 36,000  Level FlightAware ADS-B
Tue 05:31:22 PM 41.0010 -85.9500 271° West 410 472 36,000  Level FlightAware ADS-B
Tue 05:32:02 PM 41.0040 -86.0510 272° West 411 473 36,000  Level FlightAware ADS-B
Tue 05:32:47 PM 41.0060 -86.1610 271° West 410 472 36,000  Level FlightAware ADS-B
Tue 05:33:27 PM 41.0080 -86.2590 272° West 409 471 36,000  Level FlightAware ADS-B
Tue 05:34:07 PM 41.0100 -86.3610 272° West 409 471 36,000  Level FlightAware ADS-B
Tue 05:34:42 PM 41.0110 -86.4410 271° West 408 470 36,000  Level FlightAware ADS-B
Tue 05:35:32 PM 41.0140 -86.5710 272° West 408 470 36,000  Level FlightAware ADS-B
Tue 05:36:12 PM 41.0150 -86.6740 271° West 406 467 36,000  Level FlightAware ADS-B
Tue 05:36:57 PM 41.0170 -86.7830 271° West 405 466 36,000  Level FlightAware ADS-B
Tue 05:37:37 PM 41.0180 -86.8780 271° West 405 466 36,000  Level FlightAware ADS-B
Tue 05:38:22 PM 41.0200 -86.9920 271° West 406 467 36,000  Level FlightAware ADS-B
Tue 05:39:02 PM 41.0210 -87.0900 271° West 407 468 36,000  Level FlightAware ADS-B
Tue 05:39:47 PM 41.0230 -87.2020 271° West 409 471 36,000  Level FlightAware ADS-B
Tue 05:40:22 PM 41.0240 -87.2930 271° West 408 470 36,000  Level FlightAware ADS-B
Tue 05:41:07 PM 41.0250 -87.4060 271° West 409 471 36,000  Level FlightAware ADS-B
Tue 05:41:52 PM 41.0260 -87.5160 271° West 410 472 36,000  Level FlightAware ADS-B
Tue 05:42:27 PM 41.0260 -87.6030 270° West 411 473 36,000  Level FlightAware ADS-B
Tue 05:43:17 PM 41.0270 -87.7270 271° West 412 474 36,000  Level FlightAware ADS-B
Tue 05:43:57 PM 41.0280 -87.8280 271° West 412 474 36,000  Level FlightAware ADS-B
Tue 05:44:37 PM 41.0290 -87.9300 271° West 412 474 36,000  Level FlightAware ADS-B
Tue 05:45:22 PM 41.0290 -88.0480 270° West 414 476 36,000  Level FlightAware ADS-B
Tue 05:45:52 PM 41.0290 -88.1220 270° West 415 478 36,000  Level FlightAware ADS-B
Tue 05:46:47 PM 41.0300 -88.2610 271° West 418 481 36,000  Level FlightAware ADS-B
Tue 05:47:27 PM 41.0300 -88.3560 270° West 421 484 36,000  Level FlightAware ADS-B
Tue 05:48:07 PM 41.0300 -88.4650 270° West 421 484 36,000  Level FlightAware ADS-B
Tue 05:48:52 PM 41.0300 -88.5840 270° West 421 484 36,000  Level FlightAware ADS-B
Tue 05:49:32 PM 41.0300 -88.6850 270° West 421 484 36,000  Level FlightAware ADS-B
Tue 05:50:17 PM 41.0300 -88.7960 270° West 420 483 36,000  Level FlightAware ADS-B
Tue 05:50:57 PM 41.0290 -88.8990 269° West 420 483 36,000  Level FlightAware ADS-B
Tue 05:51:37 PM 41.0290 -89.0020 270° West 421 484 36,000  Level FlightAware ADS-B
Tue 05:52:22 PM 41.0290 -89.1180 270° West 421 484 36,000  Level FlightAware ADS-B
Tue 05:53:02 PM 41.0280 -89.2230 269° West 418 481 36,000  Level FlightAware ADS-B
Tue 05:53:42 PM 41.0270 -89.3220 269° West 417 480 36,000  Level FlightAware ADS-B
Tue 05:54:27 PM 41.0260 -89.4360 269° West 415 478 36,000  Level FlightAware ADS-B
Tue 05:55:07 PM 41.0260 -89.5410 270° West 414 476 36,000  Level FlightAware ADS-B
Tue 05:55:52 PM 41.0250 -89.6450 269° West 415 478 36,000  Level FlightAware ADS-B
Tue 05:56:32 PM 41.0240 -89.7570 269° West 416 479 36,000  Level FlightAware ADS-B
Tue 05:57:12 PM 41.0220 -89.8600 269° West 418 481 36,000  Level FlightAware ADS-B
Tue 05:57:57 PM 41.0210 -89.9700 269° West 419 482 36,000  Level FlightAware ADS-B
Tue 05:58:37 PM 41.0200 -90.0700 269° West 421 484 36,000  Level FlightAware ADS-B
Tue 05:59:22 PM 41.0180 -90.1840 269° West 422 486 36,000  Level FlightAware ADS-B
Tue 06:00:02 PM 41.0170 -90.2930 269° West 423 487 36,000  Level FlightAware ADS-B
Tue 06:00:47 PM 41.0150 -90.4090 269° West 423 487 36,000  Level FlightAware ADS-B
Tue 06:01:27 PM 41.0130 -90.5160 269° West 423 487 36,000  Level FlightAware ADS-B
Tue 06:02:02 PM 41.0120 -90.5980 269° West 424 488 36,000  Level FlightAware ADS-B
Tue 06:02:52 PM 41.0090 -90.7290 268° West 423 487 36,000  Level FlightAware ADS-B
Tue 06:03:32 PM 41.0070 -90.8360 269° West 424 488 36,000  Level FlightAware ADS-B
Tue 06:04:17 PM 41.0050 -90.9540 269° West 424 488 36,000  Level FlightAware ADS-B
Tue 06:04:47 PM 41.0030 -91.0330 268° West 425 489 36,000  Level FlightAware ADS-B
Tue 06:05:37 PM 41.0000 -91.1550 268° West 425 489 36,000  Level FlightAware ADS-B
Tue 06:06:17 PM 40.9980 -91.2570 269° West 425 489 36,000  Level FlightAware ADS-B
Tue 06:07:02 PM 40.9950 -91.3820 268° West 424 488 36,000  Level FlightAware ADS-B
Tue 06:07:47 PM 40.9920 -91.4980 268° West 423 487 36,000  Level FlightAware ADS-B
Tue 06:08:27 PM 40.9890 -91.6010 268° West 423 487 36,000  Level FlightAware ADS-B
Tue 06:09:07 PM 40.9860 -91.7040 268° West 422 486 36,000  Level FlightAware ADS-B
Tue 06:10:02 PM 40.9820 -91.8400 268° West 422 486 36,000  Level FlightAware ADS-B
Tue 06:10:47 PM 40.9790 -91.9620 268° West 422 486 36,000  Level FlightAware ADS-B
Tue 06:11:42 PM 40.9750 -92.0810 267° West 422 486 36,000  Level FlightAware ADS-B
Tue 06:12:22 PM 40.9720 -92.2010 268° West 425 489 36,000  Level FlightAware ADS-B
Tue 06:12:57 PM 40.9680 -92.3000 267° West 425 489 36,000  Level FlightAware ADS-B
Tue 06:13:47 PM 40.9640 -92.4300 268° West 426 490 36,000  Level FlightAware ADS-B
Tue 06:14:27 PM 40.9610 -92.5270 268° West 427 491 36,000  Level FlightAware ADS-B
Tue 06:15:12 PM 40.9570 -92.6460 267° West 428 493 36,000  Level FlightAware ADS-B
Tue 06:15:57 PM 40.9520 -92.7650 267° West 428 493 36,000  Level FlightAware ADS-B
Tue 06:16:37 PM 40.9480 -92.8740 267° West 429 494 36,000  Level FlightAware ADS-B
Tue 06:17:17 PM 40.9440 -92.9760 267° West 429 494 36,000  Level FlightAware ADS-B
Tue 06:18:02 PM 40.9400 -93.0920 267° West 429 494 36,000  Level FlightAware ADS-B
Tue 06:18:57 PM 40.9340 -93.2390 267° West 429 494 36,000  Level FlightAware ADS-B
Tue 06:19:32 PM 40.9310 -93.3220 267° West 428 493 36,000  Level FlightAware ADS-B
Tue 06:20:27 PM 40.9240 -93.4680 266° West 427 491 36,000  Level FlightAware ADS-B
Tue 06:21:12 PM 40.9190 -93.5750 266° West 427 491 36,000  Level FlightAware ADS-B
Tue 06:21:52 PM 40.9140 -93.6630 266° West 427 491 36,000  Level FlightAware ADS-B
Tue 06:22:32 PM 40.9090 -93.7520 266° West 427 491 36,000  Level FlightAware ADS-B
Tue 06:23:22 PM 40.9030 -93.8630 266° West 427 491 36,000  Level FlightAware ADS-B
Tue 06:24:07 PM 40.8980 -94.0440 268° West 427 491 36,000  Level FlightAware ADS-B
Tue 06:24:47 PM 40.8930 -94.1470 266° West 428 493 36,000  Level FlightAware ADS-B
Tue 06:25:27 PM 40.8880 -94.2530 266° West 430 495 36,000  Level FlightAware ADS-B
Tue 06:26:27 PM 40.8810 -94.3980 266° West 430 495 36,000  Level FlightAware ADS-B
Tue 06:27:07 PM 40.8760 -94.4880 266° West 430 495 36,000  Level FlightAware ADS-B
Tue 06:27:47 PM 40.8710 -94.5770 266° West 430 495 36,000  Level FlightAware ADS-B
Tue 06:28:27 PM 40.8660 -94.6660 266° West 430 495 36,000  Level FlightAware ADS-B
Tue 06:29:07 PM 40.8620 -94.7550 267° West 430 495 36,000  Level FlightAware ADS-B
Tue 06:29:57 PM 40.8560 -94.8670 266° West 430 495 36,000  Level FlightAware ADS-B
Tue 06:30:37 PM 40.8510 -94.9560 266° West 430 495 36,000  Level FlightAware ADS-B
Tue 06:31:17 PM 40.8460 -95.0450 266° West 430 495 36,000  Level FlightAware ADS-B
Tue 06:32:17 PM 40.8350 -95.2400 266° West 432 497 36,000  Level FlightAware ADS-B
Tue 06:33:07 PM 40.8290 -95.3550 266° West 432 497 36,000  Level FlightAware ADS-B
Tue 06:33:52 PM 40.8210 -95.4820 265° West 431 496 36,000  Level FlightAware ADS-B
Tue 06:34:27 PM 40.8150 -95.5690 265° West 431 496 36,000  Level FlightAware ADS-B
Tue 06:35:17 PM 40.8070 -95.6810 265° West 431 496 36,000  Level FlightAware ADS-B
Tue 06:35:57 PM 40.8020 -95.7700 266° West 431 496 36,000  Level FlightAware ADS-B
Tue 06:36:37 PM 40.7960 -95.8590 265° West 431 496 36,000  Level FlightAware ADS-B
Tue 06:37:17 PM 40.7900 -95.9490 265° West 431 496 36,000  Level FlightAware ADS-B
Tue 06:38:07 PM 40.7820 -96.0600 265° West 431 496 36,000  Level FlightAware ADS-B
Tue 06:38:47 PM 40.7760 -96.1490 265° West 431 496 36,000  Level FlightAware ADS-B
Tue 06:39:27 PM 40.7700 -96.2380 265° West 431 496 36,000  Level FlightAware ADS-B
Tue 06:40:07 PM 40.7650 -96.3280 266° West 431 496 36,000  Level FlightAware ADS-B
Tue 06:40:47 PM 40.7590 -96.4170 265° West 431 496 36,000  Level FlightAware ADS-B
Tue 06:41:37 PM 40.7510 -96.5280 265° West 431 496 36,000  Level FlightAware ADS-B
Tue 06:42:17 PM 40.7450 -96.6170 265° West 431 496 36,000  Level FlightAware ADS-B
Tue 06:42:57 PM 40.7390 -96.7060 265° West 431 496 36,000  Level FlightAware ADS-B
Tue 06:43:37 PM 40.7330 -96.7960 265° West 431 496 36,000  Level FlightAware ADS-B
Tue 06:44:16 PM 41.5286 -96.8258 265° West 432 497 36,000  Level Minneapolis Center
Tue 06:45:18 PM 41.5642 -96.9769 288° West 427 491 36,000  Level Minneapolis Center
Tue 06:46:19 PM 41.5933 -97.0978 288° West 428 493 36,000  Level Minneapolis Center
Tue 06:47:22 PM 41.6436 -97.3108 288° West 429 494 36,000  Level Minneapolis Center
Tue 06:48:24 PM 41.6794 -97.4631 288° West 429 494 36,000  Level Minneapolis Center
Tue 06:49:26 PM 41.7153 -97.6142 288° West 428 493 36,000  Level Minneapolis Center
Tue 06:50:28 PM 41.7492 -97.7669 287° West 428 493 36,000  Level Minneapolis Center
Tue 06:51:30 PM 41.7850 -97.9181 288° West 427 491 36,000  Level Minneapolis Center
Tue 06:52:32 PM 41.8194 -98.0706 287° West 427 491 36,000  Level Minneapolis Center
Tue 06:53:46 PM 41.8594 -98.2461 287° West 425 489 36,000  Level Minneapolis Center
Tue 06:54:48 PM 41.8978 -98.4272 286° West 423 487 36,000  Level Minneapolis Center
Tue 06:55:50 PM 41.8831 -98.5822 263° West 422 486 36,000  Level Minneapolis Center
Tue 06:56:52 PM 41.8589 -98.7356 258° West 422 486 36,000  Level Minneapolis Center
Tue 06:57:54 PM 41.8292 -98.9208 258° West 425 489 36,000  Level Minneapolis Center
Tue 06:58:56 PM 41.8061 -99.0753 259° West 426 490 36,000  Level Minneapolis Center
Tue 06:59:41 PM 41.7853 -99.1994 257° West 427 491 36,000  Level Denver Center
Tue 07:00:43 PM 41.7475 -99.3478 251° West 426 490 36,000  Level Denver Center
Tue 07:01:45 PM 41.7067 -99.4964 250° West 427 491 36,000  Level Denver Center
Tue 07:02:47 PM 41.6658 -99.6436 250° West 425 489 36,000  Level Denver Center
Tue 07:03:49 PM 41.6194 -99.8106 250° West 425 489 36,000  Level Denver Center
Tue 07:04:51 PM 41.5808 -99.9511 250° West 423 487 36,000  Level Denver Center
Tue 07:05:53 PM 41.5339 -100.1183 249° West 428 493 36,000  Level Denver Center
Tue 07:06:55 PM 41.4939 -100.2611 250° West 431 496 36,000  Level Denver Center
Tue 07:12:46 PM 41.2374 -101.1510 250° West 430 495 36,000  Level FlightAware ADS-B
Tue 07:13:18 PM 41.2145 -101.2290 249° West 429 494 36,000  Level FlightAware ADS-B
Tue 07:13:50 PM 41.1912 -101.3090 249° West 429 494 36,000  Level FlightAware ADS-B
Tue 07:14:22 PM 41.1682 -101.3870 249° West 430 495 36,000  Level FlightAware ADS-B
Tue 07:14:52 PM 41.1463 -101.4610 249° West 431 496 36,000  Level FlightAware ADS-B
Tue 07:15:24 PM 41.1232 -101.5390 249° West 431 496 36,000  Level FlightAware ADS-B
Tue 07:15:55 PM 41.1010 -101.6140 249° West 431 496 36,000  Level FlightAware ADS-B
Tue 07:16:27 PM 41.0777 -101.6920 248° West 432 497 36,000  Level FlightAware ADS-B
Tue 07:16:57 PM 41.0554 -101.7670 249° West 434 499 36,000  Level FlightAware ADS-B
Tue 07:17:31 PM 41.0299 -101.8520 248° West 435 501 36,000  Level FlightAware ADS-B
Tue 07:18:01 PM 41.0077 -101.9260 248° West 436 502 36,000  Level FlightAware ADS-B
Tue 07:18:31 PM 40.9853 -102.0000 248° West 437 503 36,000  Level FlightAware ADS-B
Tue 07:19:01 PM 40.9628 -102.0740 248° West 437 503 36,000  Level FlightAware ADS-B
Tue 07:19:33 PM 40.9392 -102.1520 248° West 436 502 36,000  Level FlightAware ADS-B
Tue 07:20:03 PM 40.9164 -102.2270 248° West 436 502 36,000  Level FlightAware ADS-B
Tue 07:20:34 PM 40.8929 -102.3040 248° West 436 502 36,000  Level FlightAware ADS-B
Tue 07:21:04 PM 40.8704 -102.3780 248° West 434 499 36,000  Level FlightAware ADS-B
Tue 07:21:35 PM 40.8479 -102.4510 248° West 434 499 36,000  Level FlightAware ADS-B
Tue 07:22:05 PM 40.8251 -102.5260 248° West 434 499 36,000  Level FlightAware ADS-B
Tue 07:22:35 PM 40.8023 -102.5990 248° West 435 501 36,000  Level FlightAware ADS-B
Tue 07:23:05 PM 40.7792 -102.6740 248° West 436 502 36,000 -393 Level FlightAware ADS-B
Tue 07:23:36 PM 40.7562 -102.7480 248° West 437 503 35,600 -885 Descending FlightAware ADS-B
Tue 07:24:06 PM 40.7333 -102.8220 248° West 439 505 35,100 -1,700 Descending FlightAware ADS-B
Tue 07:24:36 PM 40.7100 -102.8960 247° West 437 503 33,900 -2,500 Descending FlightAware ADS-B
Tue 07:25:06 PM 40.6869 -102.9710 248° West 438 504 32,600 -2,500 Descending FlightAware ADS-B
Tue 07:25:36 PM 40.6636 -103.0450 247° West 431 496 31,400 -2,262 Descending FlightAware ADS-B
Tue 07:26:07 PM 40.6407 -103.1180 248° West 426 490 30,300 -2,164 Descending FlightAware ADS-B
Tue 07:26:37 PM 40.6182 -103.1900 248° West 420 483 29,200 -2,200 Descending FlightAware ADS-B
Tue 07:27:07 PM 40.5958 -103.2610 247° West 415 478 28,100 -2,200 Descending FlightAware ADS-B
Tue 07:27:37 PM 40.5738 -103.3300 247° West 410 472 27,000 -2,066 Descending FlightAware ADS-B
Tue 07:28:08 PM 40.5519 -103.3990 247° West 407 468 26,000 -2,066 Descending FlightAware ADS-B
Tue 07:28:38 PM 40.5298 -103.4680 247° West 403 464 24,900 -2,129 Descending FlightAware ADS-B
Tue 07:29:10 PM 40.5073 -103.5380 247° West 399 459 23,800 -2,032 Descending FlightAware ADS-B
Tue 07:29:40 PM 40.4859 -103.6050 247° West 394 453 22,800 -2,000 Descending FlightAware ADS-B
Tue 07:30:10 PM 40.4646 -103.6720 247° West 391 450 21,800 -1,967 Descending FlightAware ADS-B
Tue 07:30:41 PM 40.4433 -103.7380 247° West 386 444 20,800 -2,066 Descending FlightAware ADS-B
Tue 07:31:11 PM 40.4225 -103.8020 247° West 381 438 19,700 -2,036 Descending FlightAware ADS-B
Tue 07:31:37 PM 40.4046 -103.8580 247° West 376 433 18,900 -1,821 Descending FlightAware ADS-B
Tue 07:32:07 PM 40.3844 -103.9200 247° West 368 423 18,000 -1,138 Descending FlightAware ADS-B
Tue 07:32:35 PM 40.3665 -103.9760 247° West 347 399 17,800 -500 Descending FlightAware ADS-B
Tue 07:32:43 PM 40.3624 -103.9920 251° West 340 391 17,700 -706 Descending FlightAware ADS-B
Tue 07:32:52 PM 40.3591 -104.0100 256° West 334 384 17,600 -1,059 Descending FlightAware ADS-B
Tue 07:33:00 PM 40.3576 -104.0260 263° West 331 381 17,400 -1,579 Descending FlightAware ADS-B
Tue 07:33:30 PM 40.3567 -104.0850 269° West 327 376 16,600 -1,574 Descending FlightAware ADS-B
Tue 07:34:01 PM 40.3560 -104.1460 269° West 325 374 15,800 -1,574 Descending FlightAware ADS-B
Tue 07:34:31 PM 40.3551 -104.2050 269° West 319 367 15,000 -1,279 Descending FlightAware ADS-B
Tue 07:35:02 PM 40.3543 -104.2620 269° West 298 343 14,500 -828 Descending FlightAware ADS-B
Tue 07:35:29 PM 40.3536 -104.3100 269° West 275 316 14,200 -600 Descending FlightAware ADS-B
Tue 07:35:32 PM 40.3532 -104.3150 264° West 273 314 14,200  Level FlightAware ADS-B
Tue 07:35:37 PM 40.3520 -104.3230 259° West 270 311 14,200 -667 Level FlightAware ADS-B
Tue 07:35:41 PM 40.3506 -104.3280 250° West 267 307 14,100 -857 Descending FlightAware ADS-B
Tue 07:35:44 PM 40.3490 -104.3330 247° West 267 307 14,100 -1,333 Level FlightAware ADS-B
Tue 07:35:50 PM 40.3452 -104.3420 241° Southwest 267 307 13,900 -1,241 Descending FlightAware ADS-B
Tue 07:36:13 PM 40.3306 -104.3730 238° Southwest 264 304 13,500 -1,358 Descending FlightAware ADS-B
Tue 07:36:43 PM 40.3118 -104.4150 240° Southwest 266 306 12,700 -1,475 Descending FlightAware ADS-B
Tue 07:37:14 PM 40.2935 -104.4570 240° Southwest 270 311 12,000 -1,220 Descending FlightAware ADS-B
Tue 07:37:42 PM 40.2764 -104.4980 241° Southwest 267 307 11,500 -1,294 Descending FlightAware ADS-B
Tue 07:38:05 PM 40.2629 -104.5300 241° Southwest 268 308 10,900 -1,245 Descending FlightAware ADS-B
Tue 07:38:35 PM 40.2448 -104.5730 241° Southwest 267 307 10,400 -1,227 Descending FlightAware ADS-B
Tue 07:38:49 PM 40.2363 -104.5930 241° Southwest 267 307 10,000 -1,667 Descending FlightAware ADS-B
Tue 07:38:53 PM 40.2339 -104.5970 232° Southwest 267 307 9,900 -857 Descending FlightAware ADS-B
Tue 07:38:56 PM 40.2310 -104.6020 233° Southwest 267 307 9,900 -857 Level FlightAware ADS-B
Tue 07:39:00 PM 40.2280 -104.6060 226° Southwest 265 305 9,800 -857 Descending FlightAware ADS-B
Tue 07:39:03 PM 40.2245 -104.6090 213° Southwest 264 304 9,800 -750 Level FlightAware ADS-B
Tue 07:39:08 PM 40.2200 -104.6130 214° Southwest 262 302 9,700 -1,000 Descending FlightAware ADS-B
Tue 07:39:15 PM 40.2128 -104.6190 212° Southwest 261 300 9,600 -818 Descending FlightAware ADS-B
Tue 07:39:30 PM 40.1971 -104.6300 208° Southwest 258 297 9,400 -1,071 Descending FlightAware ADS-B
Tue 07:39:43 PM 40.1834 -104.6410 212° Southwest 259 298 9,100 -828 Descending FlightAware ADS-B
Tue 07:39:59 PM 40.1668 -104.6530 209° Southwest 258 297 9,000 -200 Descending FlightAware ADS-B
Tue 07:40:13 PM 40.1527 -104.6640 211° Southwest 254 292 9,000  Level FlightAware ADS-B
Tue 07:40:29 PM 40.1365 -104.6760 210° Southwest 253 291 9,000  Level FlightAware ADS-B
Tue 07:40:33 PM 40.1324 -104.6790 209° Southwest 251 289 9,000  Level FlightAware ADS-B
Tue 07:40:36 PM 40.1290 -104.6810 204° Southwest 251 289 9,000  Level FlightAware ADS-B
Tue 07:40:39 PM 40.1257 -104.6830 205° Southwest 250 288 9,000  Level FlightAware ADS-B
Tue 07:40:44 PM 40.1200 -104.6850 195° South 249 287 9,000  Level FlightAware ADS-B
Tue 07:40:48 PM 40.1159 -104.6860 191° South 246 283 9,000  Level FlightAware ADS-B
Tue 07:40:51 PM 40.1122 -104.6860 180° South 242 278 9,000  Level FlightAware ADS-B
Tue 07:40:55 PM 40.1083 -104.6860 180° South 239 275 9,000  Level FlightAware ADS-B
Tue 07:40:59 PM 40.1036 -104.6860 180° South 235 270 9,000 -800 Level FlightAware ADS-B
Tue 07:41:10 PM 40.0917 -104.6850 176° South 231 266 8,800 -1,200 Descending FlightAware ADS-B
Tue 07:41:19 PM 40.0825 -104.6850 180° South 228 262 8,600 -1,200 Descending FlightAware ADS-B
Tue 07:41:25 PM 40.0761 -104.6850 180° South 227 261 8,500 -1,200 Descending FlightAware ADS-B
Tue 07:41:39 PM 40.0611 -104.6850 180° South 219 252 8,200 -960 Descending FlightAware ADS-B
Tue 07:41:50 PM 40.0505 -104.6850 180° South 215 247 8,100 -750 Descending FlightAware ADS-B
Tue 07:42:03 PM 40.0376 -104.6850 180° South 209 241 7,900 -1,034 Descending FlightAware ADS-B
Tue 07:42:19 PM 40.0230 -104.6850 180° South 204 235 7,600 -1,111 Descending FlightAware ADS-B
Tue 07:42:30 PM 40.0124 -104.6860 184° South 204 235 7,400 -1,154 Descending FlightAware ADS-B
Tue 07:42:45 PM 39.9978 -104.6860 180° South 198 228 7,100 -968 Descending FlightAware ADS-B
Tue 07:43:01 PM 39.9835 -104.6860 180° South 188 216 6,900 -938 Descending FlightAware ADS-B
Tue 07:43:17 PM 39.9705 -104.6860 180° South 176 203 6,600 -1,000 Descending FlightAware ADS-B
Tue 07:43:31 PM 39.9592 -104.6860 180° South 169 194 6,400 -632 Descending FlightAware ADS-B
Tue 07:43:36 PM 39.9552 -104.6860 180° South 168 193 6,400 -800 Level FlightAware ADS-B
Tue 07:43:46 PM 39.9476 -104.6860 180° South 166 191 6,200 -1,000 Descending FlightAware ADS-B
Tue 07:43:54 PM 39.9415 -104.6860 180° South 162 186 6,100 -667 Descending FlightAware ADS-B
Tue 07:44:04 PM 39.9341 -104.6860 180° South 159 183 6,000 -667 Descending FlightAware ADS-B
Tue 07:44:12 PM 39.9279 -104.6860 180° South 164 189 5,900 -667 Descending FlightAware ADS-B
Tue 07:44:22 PM 39.9204 -104.6870 186° South 166 191 5,800 -783 Descending FlightAware ADS-B
Tue 07:44:35 PM 39.9106 -104.6870 180° South 157 181 5,600 -818 Descending FlightAware ADS-B
Tue 07:44:44 PM 39.9043 -104.6870 180° South 157 181 5,500 -800 Descending FlightAware ADS-B
Tue 07:45:05 PM 39.8886 -104.6870 180° South 160 184 5,200 -857 Descending FlightAware ADS-B

Login

Don't have an account? Register now (free) for customized features, flight alerts, and more!